createdAt,value
2019-03-22T00:01:20.842Z,5.38
2019-03-22T00:12:09.231Z,5.17
2019-03-22T00:14:41.563Z,5.11
2019-03-22T00:17:09.635Z,5.14
2019-03-22T00:19:39.829Z,5.21
2019-03-22T00:22:10.215Z,5.17
2019-03-22T00:24:40.811Z,5.16
2019-03-22T00:27:16.415Z,5.25
2019-03-22T00:29:41.563Z,5.18
2019-03-22T00:32:11.706Z,5.20
2019-03-22T00:34:44.220Z,5.16
2019-03-22T00:37:14.407Z,5.04
2019-03-22T00:39:48.137Z,5.08
2019-03-22T00:42:19.147Z,4.99
2019-03-22T00:44:47.911Z,4.98
2019-03-22T00:47:18.160Z,4.81
2019-03-22T00:49:51.144Z,4.87
2019-03-22T00:52:29.998Z,4.85
2019-03-22T00:54:57.707Z,4.87
2019-03-22T01:00:15.713Z,4.87
2019-03-22T01:02:46.910Z,4.76
2019-03-22T01:08:01.227Z,4.88
2019-03-22T01:10:29.781Z,4.86
2019-03-22T01:21:12.375Z,4.74
2019-03-22T01:23:42.461Z,4.74
2019-03-22T01:26:12.585Z,4.65
2019-03-22T01:36:49.267Z,4.58
2019-03-22T01:42:01.942Z,4.47
2019-03-22T01:44:32.590Z,4.32
2019-03-22T01:47:02.694Z,4.14
2019-03-22T01:52:20.289Z,4.57
2019-03-22T01:54:52.933Z,4.49
2019-03-22T01:57:26.229Z,4.68
2019-03-22T01:59:56.829Z,4.67
2019-03-22T02:05:09.970Z,4.58
2019-03-22T02:07:40.028Z,4.61
2019-03-22T02:10:13.258Z,4.49
2019-03-22T02:12:43.390Z,4.46
2019-03-22T02:15:16.958Z,4.41
2019-03-22T02:17:47.045Z,4.38
2019-03-22T02:20:20.992Z,4.38
2019-03-22T02:22:52.862Z,4.39
2019-03-22T02:25:25.867Z,4.39
2019-03-22T02:30:45.513Z,4.51
2019-03-22T02:33:21.141Z,4.52
2019-03-22T02:38:33.259Z,4.37
2019-03-22T02:41:01.516Z,4.22
2019-03-22T02:43:33.721Z,4.24
2019-03-22T02:46:04.505Z,4.30
2019-03-22T02:51:22.870Z,4.21
2019-03-22T03:02:06.480Z,4.21
2019-03-22T03:04:37.111Z,4.18
2019-03-22T03:10:23.536Z,4.06
2019-03-22T03:15:16.654Z,4.12
2019-03-22T03:17:46.825Z,4.26
2019-03-22T03:20:17.184Z,4.26
2019-03-22T03:22:47.403Z,4.27
2019-03-22T03:25:17.881Z,4.12
2019-03-22T03:27:48.510Z,4.04
2019-03-22T03:30:18.699Z,3.98
2019-03-22T03:35:34.193Z,3.84
2019-03-22T03:38:04.440Z,3.65
2019-03-22T03:40:35.104Z,3.79
2019-03-22T03:43:05.322Z,4.05
2019-03-22T03:45:37.998Z,3.97
2019-03-22T03:48:11.011Z,3.96
2019-03-22T03:50:43.958Z,4.06
2019-03-22T03:53:17.260Z,4.06
2019-03-22T03:55:47.473Z,4.07
2019-03-22T03:58:17.646Z,3.92
2019-03-22T04:03:30.034Z,3.94
2019-03-22T04:06:06.359Z,3.97
2019-03-22T04:08:36.485Z,3.91
2019-03-22T04:11:06.730Z,3.87
2019-03-22T04:16:19.323Z,4.01
2019-03-22T04:18:50.774Z,3.93
2019-03-22T04:21:29.837Z,3.90
2019-03-22T04:23:58.774Z,3.77
2019-03-22T04:26:34.017Z,3.72
2019-03-22T04:29:13.677Z,3.72
2019-03-22T04:31:43.906Z,3.74
2019-03-22T04:34:15.709Z,3.67
2019-03-22T04:36:47.824Z,3.66
2019-03-22T04:39:19.713Z,3.68
2019-03-22T04:44:37.639Z,3.69
2019-03-22T04:47:08.375Z,3.77
2019-03-22T04:49:40.472Z,3.78
2019-03-22T04:52:13.050Z,3.78
2019-03-22T04:54:41.162Z,3.66
2019-03-22T04:57:18.785Z,3.70
2019-03-22T04:59:54.124Z,3.66
2019-03-22T05:02:29.031Z,3.68
2019-03-22T05:05:02.177Z,3.56
2019-03-22T05:07:30.196Z,3.37
2019-03-22T05:10:00.577Z,3.31
2019-03-22T05:12:37.030Z,3.31
2019-03-22T05:15:08.993Z,3.16
2019-03-22T05:17:37.383Z,3.22
2019-03-22T05:20:10.615Z,3.35
2019-03-22T05:22:41.172Z,3.49
2019-03-22T05:25:11.325Z,3.53
2019-03-22T05:27:44.586Z,3.57
2019-03-22T05:30:54.261Z,3.52
2019-03-22T05:33:25.514Z,3.58
2019-03-22T05:35:55.540Z,3.67
2019-03-22T05:38:25.403Z,3.66
2019-03-22T05:40:55.573Z,3.66
2019-03-22T05:46:12.144Z,3.69
2019-03-22T05:48:44.129Z,3.72
2019-03-22T05:51:18.310Z,3.66
2019-03-22T05:53:55.323Z,3.64
2019-03-22T05:59:07.621Z,3.71
2019-03-22T06:01:38.161Z,3.79
2019-03-22T06:04:08.393Z,3.80
2019-03-22T06:06:38.586Z,3.78
2019-03-22T06:09:09.338Z,3.74
2019-03-22T06:11:39.857Z,3.89
2019-03-22T06:14:10.076Z,4.04
2019-03-22T06:16:43.048Z,4.04
2019-03-22T06:19:13.281Z,4.19
2019-03-22T06:21:43.812Z,4.13
2019-03-22T06:24:14.033Z,4.21
2019-03-22T06:26:45.461Z,4.21
2019-03-22T06:29:14.903Z,4.39
2019-03-22T06:31:48.144Z,4.47
2019-03-22T06:37:01.747Z,4.53
2019-03-22T06:39:34.632Z,4.74
2019-03-22T06:42:07.332Z,4.84
2019-03-22T06:44:37.532Z,4.84
2019-03-22T06:47:11.286Z,4.94
2019-03-22T06:49:41.494Z,5.06
2019-03-22T06:52:13.149Z,5.19
2019-03-22T06:57:30.142Z,5.55
2019-03-22T07:00:06.537Z,5.55
2019-03-22T07:05:15.348Z,6.01
2019-03-22T07:07:45.567Z,6.19
2019-03-22T07:10:15.796Z,6.52
2019-03-22T07:12:46.320Z,6.52
2019-03-22T07:15:16.488Z,6.69
2019-03-22T07:17:46.764Z,6.81
2019-03-22T07:20:16.920Z,6.91
2019-03-22T07:22:47.110Z,7.04
2019-03-22T07:27:59.693Z,7.10
2019-03-22T07:30:29.790Z,7.11
2019-03-22T07:33:00.028Z,7.11
2019-03-22T07:35:30.180Z,7.13
2019-03-22T07:38:02.801Z,7.19
2019-03-22T07:40:30.529Z,7.29
2019-03-22T07:43:00.678Z,7.37
2019-03-22T07:45:30.899Z,7.42
2019-03-22T07:50:43.495Z,7.64
2019-03-22T07:53:15.356Z,7.80
2019-03-22T07:55:50.592Z,7.97
2019-03-22T08:06:45.139Z,8.59
2019-03-22T08:09:15.325Z,8.70
2019-03-22T08:11:45.479Z,8.73
2019-03-22T08:14:16.952Z,8.93
2019-03-22T08:16:45.836Z,8.96
2019-03-22T08:19:16.007Z,9.15
2019-03-22T08:21:48.770Z,9.21
2019-03-22T08:24:17.685Z,9.18
2019-03-22T08:26:49.556Z,9.58
2019-03-22T08:29:22.785Z,9.85
2019-03-22T08:31:56.301Z,9.86
2019-03-22T08:34:31.290Z,10.06
2019-03-22T08:37:12.015Z,10.04
2019-03-22T08:39:45.071Z,10.10
2019-03-22T08:42:17.937Z,10.17
2019-03-22T08:44:48.168Z,10.20
2019-03-22T08:47:32.884Z,10.21
2019-03-22T08:49:51.599Z,10.17
2019-03-22T08:52:21.627Z,10.22
2019-03-22T08:54:51.825Z,10.34
2019-03-22T08:57:24.809Z,10.44
2019-03-22T08:59:52.585Z,10.41
2019-03-22T09:02:23.121Z,10.63
2019-03-22T09:04:53.739Z,10.60
2019-03-22T09:07:28.350Z,10.56
2019-03-22T09:12:54.138Z,10.89
2019-03-22T09:15:40.649Z,11.07
2019-03-22T09:18:03.177Z,11.09
2019-03-22T09:20:33.385Z,11.22
2019-03-22T09:23:05.784Z,11.42
2019-03-22T09:25:38.749Z,11.55
2019-03-22T09:28:10.488Z,11.63
2019-03-22T09:30:39.608Z,11.77
2019-03-22T09:33:09.800Z,11.83
2019-03-22T09:35:41.667Z,12.08
2019-03-22T09:38:13.143Z,12.21
2019-03-22T09:40:40.827Z,12.31
2019-03-22T09:43:10.974Z,12.38
2019-03-22T09:45:42.059Z,12.51
2019-03-22T09:48:12.783Z,12.68
2019-03-22T09:50:43.235Z,12.75
2019-03-22T09:53:13.924Z,12.89
2019-03-22T09:55:46.805Z,13.02
2019-03-22T09:58:16.987Z,13.07
2019-03-22T10:00:48.722Z,13.15
2019-03-22T10:06:02.720Z,13.42
2019-03-22T10:08:34.921Z,13.44
2019-03-22T10:11:08.046Z,13.56
2019-03-22T10:13:36.282Z,13.78
2019-03-22T10:16:06.910Z,13.78
2019-03-22T10:18:37.513Z,13.81
2019-03-22T10:21:07.669Z,13.91
2019-03-22T10:23:37.942Z,14.00
2019-03-22T10:26:11.238Z,13.90
2019-03-22T10:28:41.412Z,13.98
2019-03-22T10:31:18.376Z,14.20
2019-03-22T10:33:47.368Z,14.40
2019-03-22T10:36:17.653Z,14.47
2019-03-22T10:41:30.380Z,14.73
2019-03-22T10:44:05.312Z,14.78
2019-03-22T10:46:35.967Z,14.89
2019-03-22T10:49:06.097Z,15.00
2019-03-22T10:51:36.318Z,14.99
2019-03-22T10:54:06.603Z,15.09
2019-03-22T10:56:36.825Z,15.25
2019-03-22T10:59:09.044Z,15.38
2019-03-22T11:01:48.637Z,15.50
2019-03-22T11:06:51.169Z,15.77
2019-03-22T11:09:21.399Z,15.72
2019-03-22T11:11:51.558Z,15.81
2019-03-22T11:14:22.201Z,15.85
2019-03-22T11:16:58.879Z,16.06
2019-03-22T11:19:22.941Z,15.97
2019-03-22T11:21:53.675Z,16.19
2019-03-22T11:24:24.354Z,16.21
2019-03-22T11:26:56.983Z,16.37
2019-03-22T11:32:13.154Z,16.21
2019-03-22T11:34:50.224Z,16.35
2019-03-22T11:37:25.948Z,16.37
2019-03-22T11:42:38.162Z,16.61
2019-03-22T11:53:21.853Z,16.86
2019-03-22T11:55:52.065Z,17.10
2019-03-22T11:58:28.760Z,16.89
2019-03-22T12:00:57.363Z,16.94
2019-03-22T12:03:27.246Z,16.70
2019-03-22T12:08:43.088Z,17.04
2019-03-22T12:16:48.775Z,17.32
2019-03-22T12:19:17.395Z,17.28
2019-03-22T12:21:50.881Z,17.21
2019-03-22T12:24:25.955Z,17.12
2019-03-22T12:27:00.167Z,17.22
2019-03-22T12:37:48.367Z,17.38
2019-03-22T12:45:50.449Z,17.46
2019-03-22T12:51:02.552Z,17.39
2019-03-22T12:53:28.728Z,17.25
2019-03-22T12:55:58.841Z,17.60
2019-03-22T13:03:53.725Z,17.56
2019-03-22T13:06:23.923Z,17.55
2019-03-22T13:08:54.120Z,17.46
2019-03-22T13:17:08.264Z,17.46
2019-03-22T13:22:31.755Z,17.49
2019-03-22T13:25:01.865Z,17.56
2019-03-22T13:27:35.612Z,17.64
2019-03-22T13:32:52.208Z,17.47
2019-03-22T13:38:15.512Z,17.79
2019-03-22T13:40:51.315Z,17.77
2019-03-22T13:43:31.877Z,17.67
2019-03-22T13:49:03.239Z,17.36
2019-03-22T13:51:19.074Z,17.48
2019-03-22T13:56:33.976Z,17.43
2019-03-22T13:59:04.440Z,17.85
2019-03-22T14:01:35.884Z,17.63
2019-03-22T14:04:07.551Z,17.54
2019-03-22T14:12:04.274Z,17.59
2019-03-22T14:14:36.487Z,17.50
2019-03-22T14:22:29.581Z,17.49
2019-03-22T14:25:02.727Z,17.43
2019-03-22T14:30:21.334Z,17.65
2019-03-22T14:35:36.783Z,17.47
2019-03-22T14:38:06.340Z,17.29
2019-03-22T14:40:35.327Z,17.57
2019-03-22T14:43:07.605Z,17.48
2019-03-22T14:45:37.823Z,17.33
2019-03-22T14:53:45.767Z,17.42
2019-03-22T14:56:22.643Z,17.41
2019-03-22T14:59:04.538Z,17.57
2019-03-22T15:01:27.501Z,17.72
2019-03-22T15:06:48.311Z,17.55
2019-03-22T15:09:15.158Z,17.63
2019-03-22T15:17:12.791Z,17.41
2019-03-22T15:22:31.628Z,17.35
2019-03-22T15:27:47.508Z,17.45
2019-03-22T15:33:08.996Z,17.71
2019-03-22T15:38:52.246Z,17.46
2019-03-22T15:41:19.177Z,17.56
2019-03-22T15:46:37.329Z,17.30
2019-03-22T15:51:53.363Z,17.19
2019-03-22T16:00:05.331Z,16.90
2019-03-22T16:03:01.000Z,16.95
2019-03-22T16:08:43.722Z,16.94
2019-03-22T16:10:54.083Z,17.12
2019-03-22T16:13:30.032Z,16.98
2019-03-22T16:16:06.243Z,17.14
2019-03-22T16:18:42.259Z,16.78
2019-03-22T16:21:14.062Z,16.76
2019-03-22T16:23:43.116Z,16.80
2019-03-22T16:26:13.335Z,16.76
2019-03-22T16:31:28.686Z,16.88
2019-03-22T16:36:57.186Z,16.65
2019-03-22T16:39:30.425Z,16.63
2019-03-22T16:47:38.892Z,16.11
2019-03-22T16:53:14.136Z,15.77
2019-03-22T16:55:47.123Z,15.67
2019-03-22T17:03:51.470Z,15.73
2019-03-22T17:06:18.567Z,15.51
2019-03-22T17:08:52.120Z,15.54
2019-03-22T17:14:07.358Z,15.68
2019-03-22T17:16:37.632Z,15.24
2019-03-22T17:19:11.644Z,14.95
2019-03-22T17:21:42.454Z,15.25
2019-03-22T17:32:55.966Z,14.81
2019-03-22T17:46:37.169Z,14.63
2019-03-22T17:49:10.720Z,14.50
2019-03-22T17:51:44.985Z,14.56
2019-03-22T17:54:19.510Z,14.54
2019-03-22T17:59:41.558Z,14.25
2019-03-22T18:02:20.427Z,14.08
2019-03-22T18:05:04.328Z,14.34
2019-03-22T18:07:26.970Z,14.14
2019-03-22T18:09:58.267Z,14.24
2019-03-22T18:12:28.998Z,14.03
2019-03-22T18:23:57.839Z,13.38
2019-03-22T18:30:04.087Z,13.30
2019-03-22T18:45:24.657Z,13.44
2019-03-22T18:47:54.769Z,13.23
2019-03-22T18:50:25.169Z,13.20
2019-03-22T18:52:55.211Z,13.15
2019-03-22T18:55:25.256Z,13.16
2019-03-22T18:57:55.301Z,13.30
2019-03-22T19:00:25.332Z,13.28
2019-03-22T19:02:55.408Z,13.28
2019-03-22T19:05:25.464Z,13.05
2019-03-22T19:07:55.499Z,13.09
2019-03-22T19:10:25.892Z,12.84
2019-03-22T19:15:35.295Z,12.77
2019-03-22T19:18:05.639Z,12.86
2019-03-22T19:20:35.672Z,12.95
2019-03-22T19:23:05.726Z,12.87
2019-03-22T19:25:35.757Z,12.92
2019-03-22T19:28:05.802Z,12.82
2019-03-22T19:33:15.469Z,12.80
2019-03-22T19:38:25.447Z,12.58
2019-03-22T19:40:55.748Z,12.70
2019-03-22T19:43:26.172Z,12.64
2019-03-22T19:45:56.235Z,12.63
2019-03-22T19:48:26.616Z,12.65
2019-03-22T19:50:56.667Z,12.54
2019-03-22T19:53:26.721Z,12.50
2019-03-22T19:55:56.778Z,12.51
2019-03-22T19:58:27.187Z,12.49
2019-03-22T20:00:57.225Z,12.53
2019-03-22T20:03:27.627Z,12.28
2019-03-22T20:05:57.955Z,12.45
2019-03-22T20:08:28.006Z,12.57
2019-03-22T20:10:58.039Z,12.40
2019-03-22T20:13:28.089Z,12.40
2019-03-22T20:15:58.136Z,12.37
2019-03-22T20:18:28.203Z,12.32
2019-03-22T20:20:58.561Z,12.19
2019-03-22T20:23:28.907Z,12.26
2019-03-22T20:25:59.306Z,12.18
2019-03-22T20:28:29.392Z,12.13
2019-03-22T20:30:59.751Z,12.09
2019-03-22T20:33:29.787Z,12.04
2019-03-22T20:35:59.835Z,12.13
2019-03-22T20:38:29.878Z,11.95
2019-03-22T20:41:00.215Z,11.94
2019-03-22T20:43:30.567Z,11.93
2019-03-22T20:46:00.615Z,11.81
2019-03-22T20:48:30.660Z,11.89
2019-03-22T20:51:00.725Z,11.83
2019-03-22T20:53:31.122Z,11.63
2019-03-22T20:56:01.191Z,11.74
2019-03-22T20:58:31.218Z,11.81
2019-03-22T21:01:01.609Z,11.77
2019-03-22T21:03:31.639Z,11.75
2019-03-22T21:06:04.490Z,11.57
2019-03-22T21:08:32.065Z,11.63
2019-03-22T21:11:02.459Z,11.63
2019-03-22T21:13:32.500Z,11.61
2019-03-22T21:16:02.540Z,11.66
2019-03-22T21:18:32.584Z,11.60
2019-03-22T21:21:02.641Z,11.40
2019-03-22T21:23:36.617Z,11.41
2019-03-22T21:26:02.737Z,11.49
2019-03-22T21:28:32.778Z,11.35
2019-03-22T21:31:02.817Z,11.42
2019-03-22T21:33:32.861Z,11.31
2019-03-22T21:36:02.911Z,11.28
2019-03-22T21:38:32.945Z,11.34
2019-03-22T21:41:03.015Z,11.34
2019-03-22T21:43:33.369Z,11.41
2019-03-22T21:46:03.427Z,11.17
2019-03-22T21:48:33.481Z,11.23
2019-03-22T21:51:03.842Z,11.07
2019-03-22T21:53:33.876Z,11.00
2019-03-22T21:58:43.637Z,10.83
2019-03-22T22:01:13.712Z,10.67
2019-03-22T22:03:43.750Z,10.65
2019-03-22T22:06:14.174Z,10.60
2019-03-22T22:08:44.214Z,10.52
2019-03-22T22:11:14.257Z,10.64
2019-03-22T22:13:44.608Z,10.55
2019-03-22T22:16:14.676Z,10.64
2019-03-22T22:18:44.698Z,10.58
2019-03-22T22:21:14.744Z,10.53
2019-03-22T22:23:45.135Z,10.43
2019-03-22T22:26:15.189Z,10.34
2019-03-22T22:28:45.524Z,10.29
2019-03-22T22:31:15.593Z,10.20
2019-03-22T22:33:45.630Z,10.20
2019-03-22T22:36:15.678Z,10.18
2019-03-22T22:38:46.002Z,10.25
2019-03-22T22:41:16.049Z,10.18
2019-03-22T22:43:46.084Z,10.26
2019-03-22T22:46:16.151Z,10.18
2019-03-22T22:48:46.190Z,9.91
2019-03-22T22:51:16.223Z,9.87
2019-03-22T22:53:46.259Z,9.79
2019-03-22T22:56:16.306Z,9.63
2019-03-22T22:58:46.360Z,9.67
2019-03-22T23:01:16.395Z,9.68
2019-03-22T23:03:46.767Z,9.48
2019-03-22T23:06:16.819Z,9.49
2019-03-22T23:08:46.866Z,9.48
2019-03-22T23:11:16.905Z,9.42
2019-03-22T23:13:47.244Z,9.40
2019-03-22T23:16:17.308Z,9.44
2019-03-22T23:18:47.359Z,9.38
2019-03-22T23:21:17.397Z,9.32
2019-03-22T23:23:47.463Z,9.31
2019-03-22T23:26:17.512Z,9.30
2019-03-22T23:28:47.562Z,9.36
2019-03-22T23:31:17.595Z,9.38
2019-03-22T23:33:47.644Z,9.49
2019-03-22T23:36:20.456Z,9.74
2019-03-22T23:38:48.035Z,9.74
2019-03-22T23:41:18.073Z,9.74
2019-03-22T23:43:48.121Z,9.70
2019-03-22T23:46:18.144Z,9.77
2019-03-22T23:48:48.478Z,9.97
2019-03-22T23:51:18.514Z,9.94
2019-03-22T23:53:48.934Z,9.90
2019-03-22T23:56:19.233Z,9.96
2019-03-22T23:58:49.290Z,9.91
